Time;durP1;ratioP1;P1;durP2;ratioP2;P2;SDS_P1;SDS_P2;PMS_P1;PMS_P2;Temp;Humidity;BMP_temperature;BMP_pressure;BME280_temperature;BME280_humidity;BME280_pressure;Samples;Min_cycle;Max_cycle;Signal;HPM_P1;HPM_P2
2021/06/18 00:01:14;;;;;;;7.00;1.40;;;;;;;;;;5041071;28;20029;-36
2021/06/18 00:03:42;;;;;;;5.90;1.52;;;;;;;;;;5040739;28;20048;-34
2021/06/18 00:06:09;;;;;;;8.93;2.05;;;;;;;;;;5043611;28;20373;-34
2021/06/18 00:08:37;;;;;;;8.32;1.95;;;;;;;;;;5034895;28;20116;-36
2021/06/18 00:11:04;;;;;;;9.02;1.90;;;;;;;;;;5042089;28;20637;-37
2021/06/18 00:13:32;;;;;;;4.82;1.60;;;;;;;;;;5038489;28;20025;-35
2021/06/18 00:15:59;;;;;;;14.77;1.65;;;;;;;;;;5051476;28;20021;-39
2021/06/18 00:18:26;;;;;;;7.25;1.55;;;;;;;;;;5033074;28;20021;-42
2021/06/18 00:20:54;;;;;;;6.53;1.60;;;;;;;;;;5041652;28;20059;-40
2021/06/18 00:23:21;;;;;;;6.60;1.40;;;;;;;;;;5033641;28;20476;-42
2021/06/18 00:25:48;;;;;;;6.05;1.30;;;;;;;;;;5043996;28;20480;-38
2021/06/18 00:28:15;;;;;;;5.38;1.33;;;;;;;;;;5043496;28;20060;-41
2021/06/18 00:30:43;;;;;;;6.50;1.92;;;;;;;;;;5035927;28;20056;-39
2021/06/18 00:33:10;;;;;;;8.15;1.17;;;;;;;;;;5033122;28;20017;-39
2021/06/18 00:35:37;;;;;;;4.53;1.33;;;;;;;;;;5044484;28;20032;-39
2021/06/18 00:38:04;;;;;;;5.47;1.45;;;;;;;;;;5044200;28;20020;-41
2021/06/18 00:40:31;;;;;;;8.65;1.73;;;;;;;;;;5043326;28;20480;-37
2021/06/18 00:42:58;;;;;;;9.15;1.70;;;;;;;;;;5041165;28;20039;-37
2021/06/18 00:45:25;;;;;;;4.20;1.10;;;;;;;;;;5026249;28;20021;-41
2021/06/18 00:47:56;;;;;;;4.65;1.55;;;;;;;;;;5043913;28;20099;-36
2021/06/18 00:50:23;;;;;;;7.75;2.38;;;;;;;;;;5034085;28;20489;-36
2021/06/18 00:52:50;;;;;;;12.82;3.70;;;;;;;;;;5043730;28;20032;-35
2021/06/18 00:55:17;;;;;;;14.25;4.60;;;;;;;;;;5039905;28;20020;-36
2021/06/18 00:57:44;;;;;;;11.20;4.57;;;;;;;;;;5043877;28;20029;-38
2021/06/18 01:00:12;;;;;;;18.13;5.60;;;;;;;;;;5042782;28;20021;-38
2021/06/18 01:02:39;;;;;;;19.02;6.95;;;;;;;;;;5035047;28;20362;-39
2021/06/18 01:05:07;;;;;;;19.38;6.57;;;;;;;;;;5046388;28;20552;-39
2021/06/18 01:07:36;;;;;;;18.48;5.85;;;;;;;;;;5046246;28;20025;-39
2021/06/18 01:10:03;;;;;;;17.75;6.18;;;;;;;;;;5043144;28;20033;-38
2021/06/18 01:12:32;;;;;;;12.85;6.18;;;;;;;;;;5047899;28;20079;-39
2021/06/18 01:15:10;;;;;;;21.90;7.25;;;;;;;;;;5043962;28;20041;-39
2021/06/18 01:17:43;;;;;;;20.40;7.38;;;;;;;;;;5045696;28;20120;-38
2021/06/18 01:20:22;;;;;;;15.40;5.90;;;;;;;;;;5044917;28;20022;-40
2021/06/18 01:22:51;;;;;;;18.17;6.55;;;;;;;;;;5040767;28;20033;-37
2021/06/18 01:25:27;;;;;;;13.30;6.05;;;;;;;;;;5043212;28;20071;-39
2021/06/18 01:27:57;;;;;;;12.25;5.85;;;;;;;;;;5041036;28;20427;-38
2021/06/18 01:30:25;;;;;;;15.38;6.03;;;;;;;;;;5046786;28;20039;-38
2021/06/18 01:32:52;;;;;;;14.77;5.93;;;;;;;;;;5048326;28;20100;-39
2021/06/18 01:35:20;;;;;;;14.00;5.93;;;;;;;;;;5044643;28;20021;-37
2021/06/18 01:37:49;;;;;;;15.98;6.00;;;;;;;;;;5047051;28;20553;-39
2021/06/18 01:40:17;;;;;;;15.57;5.78;;;;;;;;;;5044927;28;20495;-37
2021/06/18 01:42:46;;;;;;;17.33;5.57;;;;;;;;;;5042259;28;20040;-37
2021/06/18 01:45:15;;;;;;;12.25;5.40;;;;;;;;;;5045294;28;20062;-37
2021/06/18 01:47:43;;;;;;;12.25;5.25;;;;;;;;;;5042618;28;20056;-38
2021/06/18 01:50:12;;;;;;;17.50;5.20;;;;;;;;;;5050143;28;20045;-38
2021/06/18 01:52:41;;;;;;;13.90;5.50;;;;;;;;;;5042510;28;20025;-37
2021/06/18 01:55:09;;;;;;;17.40;5.65;;;;;;;;;;5044303;28;20032;-37
2021/06/18 01:57:38;;;;;;;20.58;5.20;;;;;;;;;;5043345;28;20095;-36
2021/06/18 02:00:06;;;;;;;13.38;4.68;;;;;;;;;;5043346;28;20057;-38
2021/06/18 02:02:35;;;;;;;12.63;4.80;;;;;;;;;;5050744;28;20025;-39
2021/06/18 02:05:04;;;;;;;12.05;5.10;;;;;;;;;;5041907;28;20044;-38
2021/06/18 02:07:31;;;;;;;20.30;4.72;;;;;;;;;;5053830;28;20496;-41
2021/06/18 02:10:00;;;;;;;10.90;4.38;;;;;;;;;;5054035;28;20422;-40
2021/06/18 02:12:28;;;;;;;19.48;5.28;;;;;;;;;;5054282;28;20380;-38
2021/06/18 02:14:57;;;;;;;19.17;4.70;;;;;;;;;;5051040;28;20025;-42
2021/06/18 02:17:26;;;;;;;13.48;4.88;;;;;;;;;;5051109;28;20158;-41
2021/06/18 02:19:55;;;;;;;15.40;4.25;;;;;;;;;;5050886;28;20036;-41
2021/06/18 02:22:24;;;;;;;14.90;4.30;;;;;;;;;;5052872;28;20384;-42
2021/06/18 02:24:52;;;;;;;13.27;4.38;;;;;;;;;;5054094;28;20488;-41
2021/06/18 02:27:20;;;;;;;12.77;4.13;;;;;;;;;;5036736;28;20006;-40
2021/06/18 02:29:48;;;;;;;10.60;3.90;;;;;;;;;;5036149;28;20087;-40
2021/06/18 02:32:15;;;;;;;10.52;3.38;;;;;;;;;;5054049;28;20427;-41
2021/06/18 02:34:43;;;;;;;13.65;3.97;;;;;;;;;;5054023;28;20021;-42
2021/06/18 02:37:12;;;;;;;11.23;4.10;;;;;;;;;;5054023;28;20059;-39
2021/06/18 02:39:39;;;;;;;9.48;3.80;;;;;;;;;;5054130;28;20048;-38
2021/06/18 02:42:07;;;;;;;7.82;3.20;;;;;;;;;;5053523;28;20103;-43
2021/06/18 02:44:34;;;;;;;12.43;3.40;;;;;;;;;;5053650;28;20029;-42
2021/06/18 02:47:08;;;;;;;9.00;3.40;;;;;;;;;;5053116;28;20044;-43
2021/06/18 02:49:55;;;;;;;9.35;3.08;;;;;;;;;;5053079;28;20476;-35
2021/06/18 02:52:28;;;;;;;10.13;3.40;;;;;;;;;;5050990;28;20017;-38
2021/06/18 02:55:18;;;;;;;9.50;3.78;;;;;;;;;;5050821;28;20021;-39
2021/06/18 02:57:55;;;;;;;8.93;3.70;;;;;;;;;;5037779;28;20040;-39
2021/06/18 03:00:24;;;;;;;9.93;3.17;;;;;;;;;;5030363;28;20064;-38
2021/06/18 03:02:54;;;;;;;9.15;3.40;;;;;;;;;;5053103;28;20070;-38
2021/06/18 03:05:23;;;;;;;10.18;3.60;;;;;;;;;;5053674;28;20388;-38
2021/06/18 03:07:55;;;;;;;6.82;3.33;;;;;;;;;;5053073;28;20511;-38
2021/06/18 03:10:25;;;;;;;5.18;2.78;;;;;;;;;;5053497;28;20037;-38
2021/06/18 03:12:57;;;;;;;6.80;3.20;;;;;;;;;;5052941;28;20087;-39
2021/06/18 03:15:25;;;;;;;9.27;3.42;;;;;;;;;;5053510;28;20025;-38
2021/06/18 03:17:53;;;;;;;9.15;2.97;;;;;;;;;;5052658;28;20033;-38
2021/06/18 03:20:21;;;;;;;11.02;3.30;;;;;;;;;;5053147;28;20028;-38
2021/06/18 03:22:57;;;;;;;9.27;2.67;;;;;;;;;;5052681;28;20758;-39
2021/06/18 03:25:25;;;;;;;8.98;2.50;;;;;;;;;;5053368;28;20063;-38
2021/06/18 03:27:54;;;;;;;12.55;3.03;;;;;;;;;;5052682;28;20489;-38
2021/06/18 03:30:21;;;;;;;8.50;2.80;;;;;;;;;;5053093;28;20036;-38
2021/06/18 03:32:52;;;;;;;6.55;2.90;;;;;;;;;;5052932;28;20017;-39
2021/06/18 03:35:20;;;;;;;6.25;2.35;;;;;;;;;;5052647;28;20029;-38
2021/06/18 03:37:47;;;;;;;10.02;2.60;;;;;;;;;;5052923;28;20021;-39
2021/06/18 03:40:15;;;;;;;8.23;2.97;;;;;;;;;;5052546;28;20377;-39
2021/06/18 03:42:42;;;;;;;11.35;2.65;;;;;;;;;;5052724;28;20365;-38
2021/06/18 03:45:10;;;;;;;11.48;3.30;;;;;;;;;;5052482;28;20029;-38
2021/06/18 03:47:38;;;;;;;9.05;2.78;;;;;;;;;;5052471;28;20037;-38
2021/06/18 03:50:05;;;;;;;7.45;2.63;;;;;;;;;;5035064;28;20040;-39
2021/06/18 03:52:33;;;;;;;7.07;2.58;;;;;;;;;;5052156;28;20108;-38
2021/06/18 03:55:00;;;;;;;7.85;2.75;;;;;;;;;;5052815;28;20052;-39
2021/06/18 03:57:27;;;;;;;5.50;2.30;;;;;;;;;;5052405;28;20028;-38
2021/06/18 03:59:54;;;;;;;4.18;2.15;;;;;;;;;;5052792;28;20108;-39
2021/06/18 04:02:24;;;;;;;6.53;2.35;;;;;;;;;;5052028;28;20544;-39
2021/06/18 04:04:52;;;;;;;6.25;2.00;;;;;;;;;;5052143;28;20029;-39
2021/06/18 04:07:19;;;;;;;6.82;2.47;;;;;;;;;;5051941;28;20112;-40
2021/06/18 04:09:47;;;;;;;7.20;2.30;;;;;;;;;;5052720;28;20044;-38
2021/06/18 04:12:15;;;;;;;5.40;2.47;;;;;;;;;;5052125;28;20013;-38
2021/06/18 04:14:42;;;;;;;7.60;2.63;;;;;;;;;;5052302;28;20067;-38
2021/06/18 04:17:10;;;;;;;5.50;2.10;;;;;;;;;;5052269;28;20025;-39
2021/06/18 04:19:37;;;;;;;4.15;2.10;;;;;;;;;;5052123;28;20104;-39
2021/06/18 04:22:06;;;;;;;5.03;2.10;;;;;;;;;;5052267;28;20427;-39
2021/06/18 04:24:33;;;;;;;6.32;2.42;;;;;;;;;;5052054;28;20032;-38
2021/06/18 04:27:01;;;;;;;7.15;2.33;;;;;;;;;;5052633;28;20021;-38
2021/06/18 04:29:28;;;;;;;4.75;2.05;;;;;;;;;;5051650;28;20048;-39
2021/06/18 04:31:55;;;;;;;4.75;1.75;;;;;;;;;;5051964;28;20021;-38
2021/06/18 04:34:22;;;;;;;3.45;1.70;;;;;;;;;;5051911;28;20028;-39
2021/06/18 04:36:50;;;;;;;5.85;2.17;;;;;;;;;;5052250;28;20017;-39
2021/06/18 04:39:17;;;;;;;3.45;1.70;;;;;;;;;;5051461;28;20020;-39
2021/06/18 04:41:44;;;;;;;5.00;1.85;;;;;;;;;;5052347;28;20100;-38
2021/06/18 04:44:11;;;;;;;5.35;2.10;;;;;;;;;;5051289;28;20035;-39
2021/06/18 04:46:38;;;;;;;8.13;2.22;;;;;;;;;;5051631;28;20211;-39
2021/06/18 04:49:05;;;;;;;6.90;1.90;;;;;;;;;;5051945;28;20033;-38
2021/06/18 04:51:32;;;;;;;5.07;2.13;;;;;;;;;;5051580;28;20384;-39
2021/06/18 04:53:59;;;;;;;6.75;2.08;;;;;;;;;;5051510;28;20083;-38
2021/06/18 04:56:26;;;;;;;3.38;1.73;;;;;;;;;;5051652;28;20485;-39
2021/06/18 04:58:53;;;;;;;4.32;2.08;;;;;;;;;;5051481;28;20457;-39
2021/06/18 05:01:20;;;;;;;3.15;1.70;;;;;;;;;;5051161;28;20096;-38
2021/06/18 05:03:47;;;;;;;3.88;1.60;;;;;;;;;;5051561;28;20021;-39
2021/06/18 05:06:14;;;;;;;4.10;1.80;;;;;;;;;;5051259;28;20075;-39
2021/06/18 05:08:41;;;;;;;3.22;1.58;;;;;;;;;;5051620;28;20029;-38
2021/06/18 05:11:08;;;;;;;3.92;2.08;;;;;;;;;;5051370;28;20504;-38
2021/06/18 05:13:35;;;;;;;5.50;1.58;;;;;;;;;;5051597;28;20147;-39
2021/06/18 05:16:02;;;;;;;3.60;1.70;;;;;;;;;;5050918;28;20025;-39
2021/06/18 05:18:29;;;;;;;4.43;1.60;;;;;;;;;;5055843;28;20017;-37
2021/06/18 05:20:56;;;;;;;4.85;1.42;;;;;;;;;;5055192;28;20108;-39
2021/06/18 05:23:23;;;;;;;3.25;1.33;;;;;;;;;;5055371;28;20389;-38
2021/06/18 05:25:51;;;;;;;6.68;1.80;;;;;;;;;;5055651;28;20067;-39
2021/06/18 05:28:18;;;;;;;3.25;1.70;;;;;;;;;;5055083;28;20107;-38
2021/06/18 05:30:45;;;;;;;3.22;1.52;;;;;;;;;;5055413;28;20032;-38
2021/06/18 05:33:12;;;;;;;2.75;1.42;;;;;;;;;;5054952;28;20483;-38
2021/06/18 05:35:42;;;;;;;4.13;1.85;;;;;;;;;;5055595;28;20549;-39
2021/06/18 05:38:09;;;;;;;2.65;1.50;;;;;;;;;;5055023;28;20041;-40
2021/06/18 05:40:38;;;;;;;5.60;1.90;;;;;;;;;;5055643;28;20032;-39
2021/06/18 05:43:05;;;;;;;3.33;1.40;;;;;;;;;;5054599;28;20017;-39
2021/06/18 05:45:34;;;;;;;2.35;1.40;;;;;;;;;;5054355;28;20025;-38
2021/06/18 05:48:01;;;;;;;4.35;1.67;;;;;;;;;;5054687;28;20044;-38
2021/06/18 05:50:28;;;;;;;2.45;1.42;;;;;;;;;;5055376;28;20029;-38
2021/06/18 05:52:55;;;;;;;4.78;1.88;;;;;;;;;;5054776;28;20017;-38
2021/06/18 05:55:22;;;;;;;4.57;1.63;;;;;;;;;;5054965;28;20013;-39
2021/06/18 05:57:50;;;;;;;3.17;1.50;;;;;;;;;;5054987;28;20464;-39
2021/06/18 06:00:17;;;;;;;2.30;1.10;;;;;;;;;;5054693;28;20024;-38
2021/06/18 06:02:45;;;;;;;2.85;1.52;;;;;;;;;;5054777;28;20025;-38
2021/06/18 06:05:12;;;;;;;3.80;1.63;;;;;;;;;;5054350;28;20033;-40
2021/06/18 06:07:45;;;;;;;2.97;1.35;;;;;;;;;;5054834;28;20025;-39
2021/06/18 06:10:13;;;;;;;2.50;1.17;;;;;;;;;;5054369;28;20029;-39
2021/06/18 06:12:40;;;;;;;5.35;1.50;;;;;;;;;;5054661;28;20048;-39
2021/06/18 06:15:07;;;;;;;3.22;1.25;;;;;;;;;;5053858;28;20063;-39
2021/06/18 06:17:34;;;;;;;3.22;1.45;;;;;;;;;;5054442;28;20029;-39
2021/06/18 06:20:01;;;;;;;3.05;1.30;;;;;;;;;;5054102;28;20029;-39
2021/06/18 06:22:28;;;;;;;3.40;1.50;;;;;;;;;;5054538;28;20029;-38
2021/06/18 06:24:55;;;;;;;3.17;1.27;;;;;;;;;;5053909;28;20376;-39
2021/06/18 06:27:22;;;;;;;4.70;1.48;;;;;;;;;;5053861;28;20027;-38
2021/06/18 06:29:50;;;;;;;3.42;1.25;;;;;;;;;;5054347;28;20455;-38
2021/06/18 06:32:17;;;;;;;2.03;1.05;;;;;;;;;;5054216;28;20464;-38
2021/06/18 06:34:45;;;;;;;2.83;1.40;;;;;;;;;;5054167;28;20384;-38
2021/06/18 06:37:12;;;;;;;3.17;1.08;;;;;;;;;;5053863;28;20416;-38
2021/06/18 06:39:39;;;;;;;3.33;1.00;;;;;;;;;;5053984;28;20025;-39
2021/06/18 06:42:06;;;;;;;3.35;1.23;;;;;;;;;;5053550;28;20029;-39
2021/06/18 06:44:33;;;;;;;3.63;1.50;;;;;;;;;;5053953;28;20021;-39
2021/06/18 06:47:00;;;;;;;3.35;1.27;;;;;;;;;;5053174;28;20048;-39
2021/06/18 06:49:27;;;;;;;4.05;1.05;;;;;;;;;;5054137;28;20033;-39
2021/06/18 06:51:54;;;;;;;2.42;1.10;;;;;;;;;;5053897;28;20075;-39
2021/06/18 06:54:25;;;;;;;1.83;0.85;;;;;;;;;;5053818;28;20024;-39
2021/06/18 06:56:53;;;;;;;1.98;1.05;;;;;;;;;;5053486;28;20078;-39
2021/06/18 06:59:20;;;;;;;3.00;1.15;;;;;;;;;;5053657;28;20033;-37
2021/06/18 07:01:47;;;;;;;1.85;1.05;;;;;;;;;;5053511;28;20044;-38
2021/06/18 07:04:14;;;;;;;3.25;1.23;;;;;;;;;;5053672;28;20033;-39
2021/06/18 07:06:44;;;;;;;2.05;1.08;;;;;;;;;;5053859;28;20044;-39
2021/06/18 07:09:11;;;;;;;4.15;1.20;;;;;;;;;;5053179;28;20040;-39
2021/06/18 07:11:38;;;;;;;3.28;1.40;;;;;;;;;;5053805;28;20503;-38
2021/06/18 07:14:05;;;;;;;2.42;1.30;;;;;;;;;;5052930;28;20427;-38
2021/06/18 07:16:32;;;;;;;3.13;1.40;;;;;;;;;;5053686;28;20052;-38
2021/06/18 07:18:59;;;;;;;2.05;1.20;;;;;;;;;;5052789;28;20495;-37
2021/06/18 07:21:26;;;;;;;2.67;0.93;;;;;;;;;;5053648;28;20044;-39
2021/06/18 07:23:54;;;;;;;2.33;1.10;;;;;;;;;;5052850;28;20016;-39
2021/06/18 07:26:21;;;;;;;3.28;1.00;;;;;;;;;;5053181;28;20025;-39
2021/06/18 07:28:48;;;;;;;1.65;1.10;;;;;;;;;;5052883;28;20048;-38
2021/06/18 07:31:15;;;;;;;2.47;1.20;;;;;;;;;;5053348;28;20036;-39
2021/06/18 07:33:42;;;;;;;2.20;1.02;;;;;;;;;;5052837;28;20056;-37
2021/06/18 07:36:09;;;;;;;2.35;1.02;;;;;;;;;;5053088;28;20032;-39
2021/06/18 07:38:36;;;;;;;1.95;0.98;;;;;;;;;;5052517;28;20103;-38
2021/06/18 07:41:03;;;;;;;5.10;1.27;;;;;;;;;;5052721;28;20552;-39
2021/06/18 07:43:31;;;;;;;2.03;0.98;;;;;;;;;;5053055;28;20031;-38
2021/06/18 07:45:58;;;;;;;2.45;1.23;;;;;;;;;;5052565;28;20017;-39
2021/06/18 07:48:26;;;;;;;3.17;1.20;;;;;;;;;;5052798;28;20125;-39
2021/06/18 07:50:53;;;;;;;1.52;0.85;;;;;;;;;;5052316;28;20029;-39
2021/06/18 07:53:20;;;;;;;1.77;0.82;;;;;;;;;;5052749;28;20023;-39
2021/06/18 07:55:49;;;;;;;1.75;1.23;;;;;;;;;;5052067;28;20021;-39
2021/06/18 07:58:16;;;;;;;3.05;1.30;;;;;;;;;;5052897;28;20021;-39
2021/06/18 08:00:43;;;;;;;4.70;1.23;;;;;;;;;;5034601;28;20393;-38
2021/06/18 08:03:10;;;;;;;2.15;1.30;;;;;;;;;;5052655;28;20025;-39
2021/06/18 08:05:37;;;;;;;1.70;0.88;;;;;;;;;;5052000;28;20599;-39
2021/06/18 08:08:04;;;;;;;2.35;0.98;;;;;;;;;;5052580;28;20028;-38
2021/06/18 08:10:31;;;;;;;3.00;1.40;;;;;;;;;;5051923;28;20033;-38
2021/06/18 08:12:58;;;;;;;2.08;1.00;;;;;;;;;;5052565;28;20503;-39
2021/06/18 08:15:25;;;;;;;1.58;0.90;;;;;;;;;;5052210;28;20039;-38
2021/06/18 08:17:52;;;;;;;1.33;0.90;;;;;;;;;;5052120;28;20104;-40
2021/06/18 08:20:25;;;;;;;2.05;0.98;;;;;;;;;;5052314;28;20021;-39
2021/06/18 08:22:54;;;;;;;3.03;1.23;;;;;;;;;;5051813;28;20112;-39
2021/06/18 08:25:21;;;;;;;2.40;1.00;;;;;;;;;;5052485;28;20400;-39
2021/06/18 08:27:48;;;;;;;1.13;0.73;;;;;;;;;;5051694;28;20017;-39
2021/06/18 08:30:16;;;;;;;2.15;0.73;;;;;;;;;;5052313;28;20090;-39
2021/06/18 08:32:43;;;;;;;3.42;0.93;;;;;;;;;;5051917;28;20021;-39
2021/06/18 08:35:10;;;;;;;1.45;0.90;;;;;;;;;;5051674;28;20090;-38
2021/06/18 08:37:37;;;;;;;2.00;0.85;;;;;;;;;;5051256;28;20021;-39
2021/06/18 08:40:05;;;;;;;1.50;0.90;;;;;;;;;;5052189;28;20353;-39
2021/06/18 08:42:32;;;;;;;2.60;1.10;;;;;;;;;;5051641;28;20021;-39
2021/06/18 08:44:59;;;;;;;2.47;0.90;;;;;;;;;;5051681;28;20029;-39
2021/06/18 08:47:26;;;;;;;2.50;1.00;;;;;;;;;;5051169;28;20051;-38
2021/06/18 08:49:53;;;;;;;4.10;0.95;;;;;;;;;;5051646;28;20514;-39
2021/06/18 08:52:20;;;;;;;2.13;0.80;;;;;;;;;;5051176;28;20060;-39
2021/06/18 08:54:48;;;;;;;1.35;0.75;;;;;;;;;;5051982;28;20074;-39
2021/06/18 08:57:16;;;;;;;1.60;0.70;;;;;;;;;;5051128;28;20021;-38
2021/06/18 08:59:43;;;;;;;1.52;0.85;;;;;;;;;;5051739;28;20044;-39
2021/06/18 09:02:11;;;;;;;1.40;0.70;;;;;;;;;;5051830;28;20044;-38
2021/06/18 09:04:56;;;;;;;1.95;1.10;;;;;;;;;;5051191;28;20043;-39
2021/06/18 09:07:23;;;;;;;1.58;0.80;;;;;;;;;;5051618;28;20033;-40
2021/06/18 09:09:50;;;;;;;1.65;0.80;;;;;;;;;;5051220;28;20552;-39
2021/06/18 09:12:18;;;;;;;2.15;0.80;;;;;;;;;;5051999;28;20100;-39
2021/06/18 09:14:45;;;;;;;1.70;0.80;;;;;;;;;;5051312;28;20448;-39
2021/06/18 09:17:23;;;;;;;2.35;1.13;;;;;;;;;;5051319;28;20047;-38
2021/06/18 09:19:52;;;;;;;1.42;0.80;;;;;;;;;;5051241;28;20495;-38
2021/06/18 09:22:19;;;;;;;1.38;0.90;;;;;;;;;;5051789;28;20035;-39
2021/06/18 09:24:57;;;;;;;1.13;0.57;;;;;;;;;;5051192;28;20396;-39
2021/06/18 09:27:37;;;;;;;2.20;0.82;;;;;;;;;;5051533;28;20404;-39
2021/06/18 09:30:23;;;;;;;1.73;0.73;;;;;;;;;;5051037;28;20065;-39
2021/06/18 09:33:16;;;;;;;2.10;0.77;;;;;;;;;;5051612;28;20022;-39
2021/06/18 09:36:05;;;;;;;1.73;0.90;;;;;;;;;;5047932;28;20493;-39
2021/06/18 09:38:42;;;;;;;1.55;0.90;;;;;;;;;;5051288;28;20048;-39
2021/06/18 09:41:32;;;;;;;1.58;0.80;;;;;;;;;;5050990;28;20095;-39
2021/06/18 09:44:11;;;;;;;2.10;0.70;;;;;;;;;;5041549;28;20032;-37
2021/06/18 09:46:46;;;;;;;2.30;0.90;;;;;;;;;;5050623;28;20029;-39
2021/06/18 09:49:28;;;;;;;2.33;0.70;;;;;;;;;;5051080;28;20025;-40
2021/06/18 09:51:55;;;;;;;2.15;0.90;;;;;;;;;;5050990;28;20031;-38
2021/06/18 09:54:23;;;;;;;1.58;0.73;;;;;;;;;;5051457;28;20473;-38
2021/06/18 09:56:50;;;;;;;1.75;0.90;;;;;;;;;;5050788;28;20052;-39
2021/06/18 09:59:23;;;;;;;2.20;0.82;;;;;;;;;;5050984;28;20025;-38
2021/06/18 10:01:54;;;;;;;1.63;0.60;;;;;;;;;;5050812;28;20447;-39
2021/06/18 10:04:25;;;;;;;2.67;0.90;;;;;;;;;;5054646;28;20086;-39
2021/06/18 10:06:52;;;;;;;1.27;0.80;;;;;;;;;;5054553;28;20135;-40
2021/06/18 10:09:19;;;;;;;2.05;0.80;;;;;;;;;;5054423;28;20033;-39
2021/06/18 10:11:46;;;;;;;1.00;0.70;;;;;;;;;;5054373;28;20033;-38
2021/06/18 10:14:14;;;;;;;2.28;0.85;;;;;;;;;;5054820;28;20017;-39
2021/06/18 10:16:42;;;;;;;2.70;0.80;;;;;;;;;;5054274;28;20029;-38
2021/06/18 10:19:09;;;;;;;1.73;0.85;;;;;;;;;;5054538;28;20460;-38
2021/06/18 10:21:45;;;;;;;1.92;0.90;;;;;;;;;;5054584;28;20021;-38
2021/06/18 10:24:13;;;;;;;1.88;0.70;;;;;;;;;;5054780;28;20484;-39
2021/06/18 10:26:41;;;;;;;1.30;0.50;;;;;;;;;;5054507;28;20013;-38
2021/06/18 10:29:08;;;;;;;1.33;0.90;;;;;;;;;;5053690;28;20029;-39
2021/06/18 10:31:36;;;;;;;1.35;0.70;;;;;;;;;;5054236;28;20043;-37
2021/06/18 10:34:09;;;;;;;1.83;0.75;;;;;;;;;;5053860;28;20017;-38
2021/06/18 10:36:36;;;;;;;3.55;0.90;;;;;;;;;;5054403;28;20111;-38
2021/06/18 10:39:03;;;;;;;3.17;0.70;;;;;;;;;;5053528;28;20488;-39
2021/06/18 10:41:31;;;;;;;2.75;0.85;;;;;;;;;;5054262;28;20033;-37
2021/06/18 10:43:58;;;;;;;1.67;0.70;;;;;;;;;;5053745;28;20021;-39
2021/06/18 10:46:38;;;;;;;2.65;0.73;;;;;;;;;;5053729;28;20071;-39
2021/06/18 10:49:05;;;;;;;2.35;0.90;;;;;;;;;;5053444;28;20025;-39
2021/06/18 10:51:38;;;;;;;2.92;1.00;;;;;;;;;;5054023;28;20021;-38
2021/06/18 10:54:12;;;;;;;3.30;0.73;;;;;;;;;;5053492;28;20021;-37
2021/06/18 10:56:45;;;;;;;2.25;0.98;;;;;;;;;;5054126;28;20027;-37
2021/06/18 10:59:16;;;;;;;2.47;0.80;;;;;;;;;;5053273;28;20024;-38
2021/06/18 11:01:47;;;;;;;2.45;0.80;;;;;;;;;;5053846;28;20024;-39
2021/06/18 11:04:14;;;;;;;1.40;0.70;;;;;;;;;;5053541;28;20472;-38
2021/06/18 11:06:42;;;;;;;2.38;0.90;;;;;;;;;;5053677;28;20029;-38
2021/06/18 11:09:10;;;;;;;3.13;0.70;;;;;;;;;;5053353;28;20405;-38
2021/06/18 11:11:37;;;;;;;2.00;1.00;;;;;;;;;;5053440;28;20025;-38
2021/06/18 11:14:05;;;;;;;2.28;0.70;;;;;;;;;;5053471;28;20495;-39
2021/06/18 11:16:33;;;;;;;2.78;0.80;;;;;;;;;;5053394;28;20401;-34
2021/06/18 11:19:18;;;;;;;5.03;1.20;;;;;;;;;;5068066;28;20024;-39
2021/06/18 11:21:45;;;;;;;19.27;1.83;;;;;;;;;;5073005;28;20021;-41
2021/06/18 11:24:12;;;;;;;123.45;9.65;;;;;;;;;;5062375;28;20028;-42
2021/06/18 11:26:39;;;;;;;45.67;4.30;;;;;;;;;;5041198;28;20032;-42
2021/06/18 11:29:27;;;;;;;37.58;2.90;;;;;;;;;;5052733;28;20017;-42
2021/06/18 11:31:54;;;;;;;19.45;2.80;;;;;;;;;;5051946;28;20021;-37
2021/06/18 11:34:25;;;;;;;21.33;1.92;;;;;;;;;;5048324;28;20095;-43
2021/06/18 11:36:53;;;;;;;11.80;1.83;;;;;;;;;;5051248;28;20029;-39
2021/06/18 11:39:21;;;;;;;8.32;1.63;;;;;;;;;;5051502;28;20021;-41
2021/06/18 11:41:56;;;;;;;7.60;1.55;;;;;;;;;;5034547;28;20028;-57
2021/06/18 11:44:25;;;;;;;4.75;1.05;;;;;;;;;;5052458;28;20372;-50
2021/06/18 11:46:53;;;;;;;159.93;10.98;;;;;;;;;;5049253;28;20141;-40
2021/06/18 11:49:22;;;;;;;54.08;6.35;;;;;;;;;;5052040;28;20029;-58
2021/06/18 11:51:50;;;;;;;32.70;3.53;;;;;;;;;;5052618;28;20021;-53
2021/06/18 11:54:31;;;;;;;13.10;1.60;;;;;;;;;;5051715;28;20072;-46
2021/06/18 11:57:12;;;;;;;11.52;2.17;;;;;;;;;;5051496;28;20095;-47
2021/06/18 11:59:39;;;;;;;15.20;2.03;;;;;;;;;;5049832;28;20036;-59
2021/06/18 12:02:16;;;;;;;16.80;1.77;;;;;;;;;;5040317;28;20022;-42
2021/06/18 12:04:44;;;;;;;33.92;3.75;;;;;;;;;;5051093;28;20021;-44
2021/06/18 12:07:11;;;;;;;17.08;2.47;;;;;;;;;;5051632;28;20021;-41
2021/06/18 12:09:39;;;;;;;25.67;2.78;;;;;;;;;;5049723;28;20025;-47
2021/06/18 12:12:08;;;;;;;24.08;3.97;;;;;;;;;;5051002;28;20144;-37
2021/06/18 12:14:47;;;;;;;24.63;3.25;;;;;;;;;;5033574;28;20369;-40
2021/06/18 12:17:18;;;;;;;22.08;2.33;;;;;;;;;;5056857;28;20040;-52
2021/06/18 12:19:46;;;;;;;20.65;2.33;;;;;;;;;;5047788;28;20769;-42
2021/06/18 12:22:13;;;;;;;18.98;2.60;;;;;;;;;;5038290;28;20040;-44
2021/06/18 12:24:43;;;;;;;16.10;2.40;;;;;;;;;;5032787;28;20030;-39
2021/06/18 12:27:18;;;;;;;16.17;2.50;;;;;;;;;;5024843;28;20023;-56
2021/06/18 12:29:46;;;;;;;21.48;3.08;;;;;;;;;;5050959;28;20120;-42
2021/06/18 12:32:14;;;;;;;22.15;3.15;;;;;;;;;;5052167;28;20381;-46
2021/06/18 12:34:52;;;;;;;20.83;3.20;;;;;;;;;;5048841;28;20031;-37
2021/06/18 12:37:21;;;;;;;21.48;3.13;;;;;;;;;;5051353;28;20031;-44
2021/06/18 12:39:52;;;;;;;16.25;2.90;;;;;;;;;;5038950;28;20428;-38
2021/06/18 12:42:26;;;;;;;18.17;2.65;;;;;;;;;;5041871;28;20013;-41
2021/06/18 12:45:03;;;;;;;22.38;3.15;;;;;;;;;;5050465;28;20021;-54
2021/06/18 12:47:34;;;;;;;16.33;2.60;;;;;;;;;;5040172;28;20071;-49
2021/06/18 12:50:21;;;;;;;11.40;2.53;;;;;;;;;;5050731;28;20079;-44
2021/06/18 12:52:49;;;;;;;8.35;2.33;;;;;;;;;;5043993;28;20071;-42
2021/06/18 12:55:16;;;;;;;23.27;2.85;;;;;;;;;;5050664;28;20021;-44
2021/06/18 12:57:43;;;;;;;16.00;3.30;;;;;;;;;;5048513;28;20025;-56
2021/06/18 13:00:12;;;;;;;13.13;2.50;;;;;;;;;;5049513;28;20377;-38
2021/06/18 13:02:40;;;;;;;24.23;2.47;;;;;;;;;;5032889;28;20025;-39
2021/06/18 13:05:17;;;;;;;18.75;3.13;;;;;;;;;;5051237;28;20345;-41
2021/06/18 13:07:46;;;;;;;18.75;2.35;;;;;;;;;;5050830;28;20419;-41
2021/06/18 13:10:13;;;;;;;21.70;2.88;;;;;;;;;;5042359;28;20471;-49
2021/06/18 13:12:41;;;;;;;22.85;2.65;;;;;;;;;;5049408;28;20033;-47
2021/06/18 13:15:10;;;;;;;23.95;2.42;;;;;;;;;;5041861;28;20017;-47
2021/06/18 13:17:53;;;;;;;15.05;3.65;;;;;;;;;;5036103;28;20103;-40
2021/06/18 13:20:30;;;;;;;20.23;2.10;;;;;;;;;;5050541;28;20475;-46
2021/06/18 13:22:57;;;;;;;15.20;2.58;;;;;;;;;;5036365;28;20341;-41
2021/06/18 13:25:28;;;;;;;20.55;2.30;;;;;;;;;;5051434;28;20071;-39
2021/06/18 13:28:01;;;;;;;13.88;2.50;;;;;;;;;;5050827;28;20029;-46
2021/06/18 13:30:29;;;;;;;13.20;2.35;;;;;;;;;;5051042;28;20024;-44
2021/06/18 13:32:56;;;;;;;13.05;2.30;;;;;;;;;;5049936;28;20059;-45
2021/06/18 13:35:28;;;;;;;9.73;2.53;;;;;;;;;;5049016;28;20104;-39
2021/06/18 13:37:59;;;;;;;16.45;2.60;;;;;;;;;;5051724;28;20032;-41
2021/06/18 13:40:38;;;;;;;17.10;2.15;;;;;;;;;;5050001;28;20036;-39
2021/06/18 13:43:06;;;;;;;15.35;2.45;;;;;;;;;;5039053;28;20061;-41
2021/06/18 13:45:33;;;;;;;15.02;2.22;;;;;;;;;;5038226;28;20029;-39
2021/06/18 13:48:00;;;;;;;14.20;2.42;;;;;;;;;;5043524;28;20068;-48
2021/06/18 13:50:28;;;;;;;12.23;2.42;;;;;;;;;;5039476;28;20425;-50
2021/06/18 13:52:56;;;;;;;10.05;2.17;;;;;;;;;;5054447;28;20021;-38
2021/06/18 13:55:23;;;;;;;8.15;2.38;;;;;;;;;;5053305;28;20028;-44
2021/06/18 13:57:50;;;;;;;10.60;2.05;;;;;;;;;;5053157;28;20098;-54
2021/06/18 14:00:17;;;;;;;10.98;2.45;;;;;;;;;;5053107;28;20099;-53
2021/06/18 14:02:44;;;;;;;12.80;1.80;;;;;;;;;;5035626;28;20059;-42
2021/06/18 14:05:12;;;;;;;15.80;2.97;;;;;;;;;;5039116;28;20029;-43
2021/06/18 14:07:39;;;;;;;14.68;1.73;;;;;;;;;;5053087;28;20083;-52
2021/06/18 14:10:07;;;;;;;10.02;2.17;;;;;;;;;;5041965;28;20038;-41
2021/06/18 14:12:34;;;;;;;10.20;1.85;;;;;;;;;;5037741;28;20025;-41
2021/06/18 14:15:03;;;;;;;10.85;1.90;;;;;;;;;;5053580;28;20016;-44
2021/06/18 14:17:31;;;;;;;11.02;2.75;;;;;;;;;;5053491;28;20052;-56
2021/06/18 14:20:00;;;;;;;10.02;2.13;;;;;;;;;;5035647;28;20028;-48
2021/06/18 14:22:28;;;;;;;11.55;2.00;;;;;;;;;;5034525;28;20120;-55
2021/06/18 14:24:55;;;;;;;9.00;2.05;;;;;;;;;;5051191;28;20021;-51
2021/06/18 14:27:22;;;;;;;8.70;2.15;;;;;;;;;;5053281;28;20481;-57
2021/06/18 14:29:49;;;;;;;9.38;1.90;;;;;;;;;;5040061;28;20116;-54
2021/06/18 14:32:18;;;;;;;15.75;2.03;;;;;;;;;;5048694;28;20083;-50
2021/06/18 14:34:45;;;;;;;9.80;1.58;;;;;;;;;;5034354;28;20087;-40
2021/06/18 14:37:13;;;;;;;14.50;2.10;;;;;;;;;;5038171;28;20018;-48
2021/06/18 14:39:40;;;;;;;14.88;2.47;;;;;;;;;;5043223;28;20064;-43
2021/06/18 14:42:08;;;;;;;8.50;1.88;;;;;;;;;;5052016;28;20024;-51
2021/06/18 14:44:35;;;;;;;13.02;2.03;;;;;;;;;;5027136;28;20048;-71
2021/06/18 14:47:03;;;;;;;13.05;1.70;;;;;;;;;;5035033;28;20041;-46
2021/06/18 14:49:30;;;;;;;15.52;3.67;;;;;;;;;;5027146;28;20041;-38